Flight Track Log - Related Links

Times and Time Zones

All times are in EDT time to prevent confusion due to time zone crossing. See the UPS662 flight status page for this flight to view local times or setup timezone preferences in your user account.

Time Position Orientation Groundspeed Altitude Reporting Facility
EDT Latitude Longitude Course Direction KTS MPH feet Rate Location/Type
Sat 05:53:37 AM 38.2000 -85.7600 341° North 157 181 3,000  Level FlightAware ADS-B
Sat 05:54:02 AM 38.2150 -85.7710 330° Northwest 176 203 4,000 1,855 Climbing FlightAware ADS-B
Sat 05:54:32 AM 38.2430 -85.7880 335° Northwest 250 288 4,700 1,867 Climbing FlightAware ADS-B
Sat 05:54:47 AM 38.2600 -85.8000 331° Northwest 275 316 5,400 3,800 Climbing FlightAware ADS-B
Sat 05:55:02 AM 38.2710 -85.8150 313° West 254 292 6,600 5,040 Climbing FlightAware ADS-B
Sat 05:55:12 AM 38.2760 -85.8290 294° West 248 285 7,500 5,040 Climbing FlightAware ADS-B
Sat 05:55:27 AM 38.2790 -85.8520 279° West 249 287 8,700 3,200 Climbing FlightAware ADS-B
Sat 05:55:57 AM 38.2740 -85.8960 262° West 264 304 9,900 2,143 Climbing FlightAware ADS-B
Sat 05:56:37 AM 38.2630 -85.9640 258° West 329 379 11,200 2,175 Climbing FlightAware ADS-B
Sat 05:57:17 AM 38.2480 -86.0470 257° West 388 447 12,800 3,176 Climbing FlightAware ADS-B
Sat 05:58:02 AM 38.2290 -86.1490 257° West 412 474 15,700 4,094 Climbing FlightAware ADS-B
Sat 05:58:42 AM 38.2110 -86.2440 256° West 422 486 18,600 3,671 Climbing FlightAware ADS-B
Sat 05:59:27 AM 38.1920 -86.3480 257° West 438 504 20,900 3,200 Climbing FlightAware ADS-B
Sat 05:59:57 AM 38.1780 -86.4300 258° West 450 518 22,600 3,075 Climbing FlightAware ADS-B
Sat 06:00:47 AM 38.1800 -86.5640 271° West 465 535 25,000 2,779 Climbing FlightAware ADS-B
Sat 06:01:32 AM 38.2030 -86.6790 284° West 470 541 27,000 2,894 Climbing FlightAware ADS-B
Sat 06:02:12 AM 38.2250 -86.7940 284° West 467 537 29,100 2,775 Climbing FlightAware ADS-B
Sat 06:02:52 AM 38.2450 -86.9000 284° West 455 524 30,700 2,325 Climbing FlightAware ADS-B
Sat 06:03:32 AM 38.2650 -87.0030 284° West 445 512 32,200 2,259 Climbing FlightAware ADS-B
Sat 06:04:17 AM 38.2850 -87.1150 283° West 425 489 33,900 1,271 Climbing FlightAware ADS-B
Sat 06:04:57 AM 38.3040 -87.2140 284° West 420 483 34,000 71 Climbing FlightAware ADS-B
Sat 06:05:42 AM 38.3230 -87.3200 283° West 425 489 34,000  Level FlightAware ADS-B
Sat 06:06:22 AM 38.3410 -87.4180 283° West 427 491 34,000  Level FlightAware ADS-B
Sat 06:07:07 AM 38.3620 -87.5300 283° West 429 494 34,000  Level FlightAware ADS-B
Sat 06:07:47 AM 38.3790 -87.6240 283° West 429 494 34,000  Level FlightAware ADS-B
Sat 06:08:32 AM 38.4000 -87.7380 283° West 430 495 34,000  Level FlightAware ADS-B
Sat 06:09:12 AM 38.4180 -87.8370 283° West 431 496 34,000  Level FlightAware ADS-B
Sat 06:09:57 AM 38.4380 -87.9510 283° West 433 498 34,000  Level FlightAware ADS-B
Sat 06:10:37 AM 38.4550 -88.0480 283° West 434 499 34,000  Level FlightAware ADS-B
Sat 06:11:22 AM 38.4750 -88.1580 283° West 434 499 34,000  Level FlightAware ADS-B
Sat 06:12:02 AM 38.4910 -88.2610 281° West 435 501 34,000  Level FlightAware ADS-B
Sat 06:12:42 AM 38.5060 -88.3630 281° West 436 502 34,000  Level FlightAware ADS-B
Sat 06:13:27 AM 38.5240 -88.4800 281° West 440 506 34,000  Level FlightAware ADS-B
Sat 06:14:07 AM 38.5390 -88.5820 281° West 442 509 34,000 71 Level FlightAware ADS-B
Sat 06:14:52 AM 38.5570 -88.6950 282° West 443 510 34,100 71 Climbing FlightAware ADS-B
Sat 06:15:32 AM 38.5720 -88.7980 281° West 443 510 34,100  Level FlightAware ADS-B
Sat 06:16:12 AM 38.5870 -88.9000 281° West 441 507 34,100 -71 Level FlightAware ADS-B
Sat 06:16:57 AM 38.6050 -89.0180 281° West 441 507 34,000 -71 Descending FlightAware ADS-B
Sat 06:17:37 AM 38.6190 -89.1180 280° West 441 507 34,000  Level FlightAware ADS-B
Sat 06:18:22 AM 38.6350 -89.2230 281° West 442 509 34,000  Level FlightAware ADS-B
Sat 06:18:57 AM 38.6490 -89.3210 280° West 442 509 34,000  Level FlightAware ADS-B
Sat 06:19:57 AM 38.6690 -89.4610 280° West 444 511 34,000  Level FlightAware ADS-B
Sat 06:20:42 AM 38.6880 -89.5950 280° West 448 516 34,000 75 Level FlightAware ADS-B
Sat 06:21:17 AM 38.7000 -89.6760 281° West 448 516 34,100 75 Climbing FlightAware ADS-B
Sat 06:22:02 AM 38.7160 -89.7910 280° West 449 517 34,100  Level FlightAware ADS-B
Sat 06:22:47 AM 38.7340 -89.9170 280° West 449 517 34,100 -63 Level FlightAware ADS-B
Sat 06:23:37 AM 38.7510 -90.0420 280° West 449 517 34,000 -60 Descending FlightAware ADS-B
Sat 06:24:27 AM 38.7710 -90.1870 280° West 451 519 34,000  Level FlightAware ADS-B
Sat 06:25:07 AM 38.7850 -90.2870 280° West 453 521 34,000  Level FlightAware ADS-B
Sat 06:25:42 AM 38.7970 -90.3820 279° West 455 524 34,000  Level FlightAware ADS-B
Sat 06:26:27 AM 38.8130 -90.5020 280° West 457 526 34,000  Level FlightAware ADS-B
Sat 06:27:12 AM 38.8290 -90.6180 280° West 460 529 34,000  Level FlightAware ADS-B
Sat 06:27:52 AM 38.8440 -90.7280 280° West 462 532 34,000 63 Level FlightAware ADS-B
Sat 06:28:47 AM 38.8630 -90.8770 279° West 464 534 34,100 63 Climbing FlightAware ADS-B
Sat 06:29:27 AM 38.8760 -90.9770 280° West 463 533 34,100 -71 Level FlightAware ADS-B
Sat 06:30:12 AM 38.8930 -91.1070 280° West 461 531 34,000 -67 Descending FlightAware ADS-B
Sat 06:30:57 AM 38.9070 -91.2210 279° West 461 531 34,000  Level FlightAware ADS-B
Sat 06:31:37 AM 38.9220 -91.3340 280° West 461 531 34,000  Level FlightAware ADS-B
Sat 06:32:22 AM 38.9370 -91.4530 279° West 461 531 34,000  Level FlightAware ADS-B
Sat 06:32:57 AM 38.9490 -91.5500 279° West 461 531 34,000  Level FlightAware ADS-B
Sat 06:33:42 AM 38.9640 -91.6690 279° West 460 529 34,000  Level FlightAware ADS-B
Sat 06:34:27 AM 38.9780 -91.7880 279° West 461 531 34,000  Level FlightAware ADS-B
Sat 06:35:22 AM 38.9970 -91.9420 279° West 463 533 34,000  Level FlightAware ADS-B
Sat 06:36:02 AM 39.0110 -92.0570 279° West 465 535 34,000  Level FlightAware ADS-B
Sat 06:36:52 AM 39.0250 -92.1850 278° West 466 536 34,000 52 Level FlightAware ADS-B
Sat 06:37:57 AM 39.0460 -92.3620 279° West 467 537 34,100 57 Climbing FlightAware ADS-B
Sat 06:38:37 AM 39.0570 -92.4560 279° West 467 537 34,100 -75 Level FlightAware ADS-B
Sat 06:39:17 AM 39.0720 -92.5850 279° West 467 537 34,000 -75 Descending FlightAware ADS-B
Sat 06:39:57 AM 39.0830 -92.6790 279° West 467 537 34,000 -282 Level FlightAware ADS-B
Sat 06:40:42 AM 39.0980 -92.8090 278° West 461 531 33,600 -3,035 Descending FlightAware ADS-B
Sat 06:41:22 AM 39.1120 -92.9300 279° West 460 529 29,700 -4,235 Descending FlightAware ADS-B
Sat 06:42:07 AM 39.1250 -93.0510 278° West 455 524 27,600 -2,824 Descending FlightAware ADS-B
Sat 06:42:47 AM 39.1380 -93.1600 279° West 442 509 25,700 -2,824 Descending FlightAware ADS-B
Sat 06:43:32 AM 39.1500 -93.2770 278° West 427 491 23,600 -2,824 Descending FlightAware ADS-B
Sat 06:44:12 AM 39.1610 -93.3770 278° West 415 478 21,700 -2,753 Descending FlightAware ADS-B
Sat 06:44:57 AM 39.1730 -93.4830 278° West 405 466 19,700 -2,753 Descending FlightAware ADS-B
Sat 06:45:37 AM 39.1830 -93.5780 278° West 398 458 17,800 -2,894 Descending FlightAware ADS-B
Sat 06:46:22 AM 39.1940 -93.6810 278° West 393 452 15,600 -2,894 Descending FlightAware ADS-B
Sat 06:47:02 AM 39.2040 -93.7770 278° West 384 442 13,700 -2,325 Descending FlightAware ADS-B
Sat 06:47:42 AM 39.2130 -93.8650 278° West 364 419 12,500 -1,765 Descending FlightAware ADS-B
Sat 06:48:27 AM 39.2220 -93.9580 277° West 344 396 11,200 -1,482 Descending FlightAware ADS-B
Sat 06:49:07 AM 39.2280 -94.0370 276° West 314 361 10,400 -1,200 Descending FlightAware ADS-B
Sat 06:49:37 AM 39.2320 -94.0900 276° West 290 334 9,800 -1,067 Descending FlightAware ADS-B
Sat 06:49:52 AM 39.2350 -94.1150 279° West 277 319 9,600 -1,467 Descending FlightAware ADS-B
Sat 06:50:22 AM 39.2400 -94.1650 277° West 268 308 8,700 -1,745 Descending FlightAware ADS-B
Sat 06:50:47 AM 39.2440 -94.2030 278° West 263 303 8,000 -1,964 Descending FlightAware ADS-B
Sat 06:51:17 AM 39.2490 -94.2490 278° West 265 305 6,900 -2,000 Descending FlightAware ADS-B
Sat 06:51:32 AM 39.2510 -94.2710 277° West 267 307 6,500 -1,500 Descending FlightAware ADS-B
Sat 06:51:57 AM 39.2560 -94.3120 279° West 262 302 5,900 -1,200 Descending FlightAware ADS-B
Sat 06:52:22 AM 39.2600 -94.3520 277° West 253 291 5,500 -933 Descending FlightAware ADS-B
Sat 06:52:42 AM 39.2620 -94.3810 275° West 242 278 5,200 -667 Descending FlightAware ADS-B
Sat 06:53:07 AM 39.2650 -94.4150 277° West 229 264 5,000 -655 Descending FlightAware ADS-B
Sat 06:53:37 AM 39.2680 -94.4530 276° West 212 244 4,600 -1,091 Descending FlightAware ADS-B
Sat 06:54:02 AM 39.2710 -94.4850 277° West 208 239 4,000 -1,200 Descending FlightAware ADS-B
Sat 06:54:32 AM 39.2730 -94.5190 274° West 193 222 3,500 -1,000 Descending FlightAware ADS-B
Sat 06:55:02 AM 39.2760 -94.5530 277° West 169 194 3,000 -545 Descending FlightAware ADS-B
Sat 06:55:27 AM 39.2780 -94.5750 277° West 169 194 3,000 -658 Level FlightAware ADS-B
Sat 06:56:15 AM 39.2811 -94.6136 277° West 140 161 2,200 -771 Descending Kansas City Center
Sat 06:57:16 AM 39.2850 -94.6592 276° West 135 155 1,600 -645 Descending Kansas City Center
Sat 06:58:16 AM 39.2889 -94.7047 276° West 134 154 900 -700 Descending Kansas City Center
Sat 07:00:00 AM 39.2833 -94.7000 270° West  Level FlightAware Approximate

Login

Don't have an account? Register now (free) for customized features, flight alerts, and more!